createdAt,value
2018-11-22T00:00:40.737Z,20.72
2018-11-22T00:01:28.524Z,24.80
2018-11-22T00:02:16.614Z,19.35
2018-11-22T00:03:04.779Z,21.25
2018-11-22T00:03:52.865Z,20.20
2018-11-22T00:04:40.492Z,21.20
2018-11-22T00:05:28.161Z,20.43
2018-11-22T00:06:15.660Z,20.15
2018-11-22T00:07:03.846Z,19.87
2018-11-22T00:07:53.307Z,20.85
2018-11-22T00:08:40.908Z,20.10
2018-11-22T00:09:29.707Z,19.70
2018-11-22T00:10:17.788Z,20.57
2018-11-22T00:11:06.077Z,21.02
2018-11-22T00:11:53.832Z,20.90
2018-11-22T00:12:41.491Z,21.48
2018-11-22T00:13:29.626Z,19.60
2018-11-22T00:14:17.372Z,20.25
2018-11-22T00:15:07.523Z,19.15
2018-11-22T00:15:55.465Z,20.10
2018-11-22T00:16:43.208Z,18.85
2018-11-22T00:17:30.832Z,19.15
2018-11-22T00:18:18.533Z,19.90
2018-11-22T00:19:06.195Z,18.20
2018-11-22T00:19:54.187Z,19.92
2018-11-22T00:20:42.017Z,19.20
2018-11-22T00:21:29.547Z,18.27
2018-11-22T00:22:16.956Z,18.20
2018-11-22T00:23:04.863Z,18.57
2018-11-22T00:23:52.434Z,20.92
2018-11-22T00:24:40.200Z,19.70
2018-11-22T00:25:28.621Z,19.27
2018-11-22T00:26:16.608Z,17.15
2018-11-22T00:27:04.404Z,17.73
2018-11-22T00:27:52.089Z,18.95
2018-11-22T00:28:39.668Z,17.32
2018-11-22T00:29:27.670Z,17.60
2018-11-22T00:30:19.693Z,17.87
2018-11-22T00:31:07.675Z,17.45
2018-11-22T00:31:55.979Z,16.40
2018-11-22T00:32:44.062Z,17.77
2018-11-22T00:33:32.183Z,19.30
2018-11-22T00:34:20.646Z,17.32
2018-11-22T00:35:10.390Z,17.15
2018-11-22T00:35:58.270Z,16.60
2018-11-22T00:36:45.870Z,17.10
2018-11-22T00:37:33.928Z,19.65
2018-11-22T00:38:21.707Z,18.95
2018-11-22T00:39:11.239Z,18.60
2018-11-22T00:39:58.886Z,19.70
2018-11-22T00:40:46.607Z,17.00
2018-11-22T00:41:34.106Z,17.73
2018-11-22T00:42:21.783Z,17.75
2018-11-22T00:43:09.589Z,17.52
2018-11-22T00:43:57.267Z,20.17
2018-11-22T00:44:45.512Z,18.85
2018-11-22T00:45:33.142Z,17.42
2018-11-22T00:46:21.155Z,19.15
2018-11-22T00:47:09.388Z,17.32
2018-11-22T00:47:57.640Z,18.60
2018-11-22T00:48:45.717Z,17.57
2018-11-22T00:49:33.609Z,16.80
2018-11-22T00:50:21.750Z,19.48
2018-11-22T00:51:09.821Z,18.07
2018-11-22T00:51:57.442Z,20.97
2018-11-22T00:52:45.568Z,22.10
2018-11-22T00:53:33.592Z,23.12
2018-11-22T00:54:21.759Z,20.97
2018-11-22T00:55:12.025Z,19.82
2018-11-22T00:55:59.798Z,19.37
2018-11-22T00:56:47.351Z,19.98
2018-11-22T00:57:34.963Z,19.05
2018-11-22T00:58:22.532Z,19.98
2018-11-22T00:59:10.555Z,19.00
2018-11-22T00:59:58.173Z,19.10
2018-11-22T01:00:45.748Z,20.32
2018-11-22T01:01:33.360Z,18.70
2018-11-22T01:02:21.371Z,18.87
2018-11-22T01:03:09.471Z,18.42
2018-11-22T01:03:57.100Z,20.77
2018-11-22T01:04:45.280Z,20.25
2018-11-22T01:05:33.360Z,19.62
2018-11-22T01:06:21.266Z,18.82
2018-11-22T01:07:09.723Z,19.12
2018-11-22T01:07:58.091Z,22.77
2018-11-22T01:08:47.119Z,26.15
2018-11-22T01:09:34.740Z,30.15
2018-11-22T01:10:24.160Z,25.20
2018-11-22T01:11:13.148Z,25.40
2018-11-22T01:12:01.136Z,24.27
2018-11-22T01:12:50.070Z,20.72
2018-11-22T01:13:38.224Z,20.65
2018-11-22T01:14:25.964Z,19.55
2018-11-22T01:15:14.634Z,20.60
2018-11-22T01:16:02.648Z,19.52
2018-11-22T01:16:50.260Z,20.27
2018-11-22T01:17:38.313Z,18.57
2018-11-22T01:18:26.179Z,18.67
2018-11-22T01:19:14.294Z,18.25
2018-11-22T01:20:02.054Z,20.35
2018-11-22T01:20:50.197Z,18.98
2018-11-22T01:21:37.690Z,17.57
2018-11-22T01:22:25.187Z,18.73
2018-11-22T01:23:12.759Z,18.75
2018-11-22T01:24:00.231Z,20.75
2018-11-22T01:24:47.791Z,17.35
2018-11-22T01:25:35.271Z,19.12
2018-11-22T01:26:23.003Z,19.82
2018-11-22T01:27:11.118Z,19.32
2018-11-22T01:27:58.954Z,19.10
2018-11-22T01:28:46.621Z,18.92
2018-11-22T01:29:34.399Z,19.87
2018-11-22T01:30:23.358Z,19.40
2018-11-22T01:31:14.403Z,17.98
2018-11-22T01:32:02.479Z,19.27
2018-11-22T01:32:51.283Z,18.35
2018-11-22T01:33:39.109Z,18.82
2018-11-22T01:34:27.246Z,19.60
2018-11-22T01:35:16.481Z,19.87
2018-11-22T01:36:05.015Z,19.30
2018-11-22T01:36:53.013Z,19.37
2018-11-22T01:37:41.340Z,19.05
2018-11-22T01:38:29.347Z,18.20
2018-11-22T01:39:17.540Z,18.17
2018-11-22T01:40:06.908Z,20.77
2018-11-22T01:40:55.011Z,19.17
2018-11-22T01:41:42.957Z,20.00
2018-11-22T01:42:31.170Z,19.55
2018-11-22T01:43:19.013Z,20.27
2018-11-22T01:44:07.037Z,19.92
2018-11-22T01:44:55.365Z,19.65
2018-11-22T01:45:43.470Z,20.35
2018-11-22T01:46:31.470Z,20.15
2018-11-22T01:47:19.274Z,18.27
2018-11-22T01:48:07.483Z,19.65
2018-11-22T01:48:55.495Z,20.20
2018-11-22T01:49:43.557Z,19.98
2018-11-22T01:50:31.256Z,19.92
2018-11-22T01:51:19.713Z,18.87
2018-11-22T01:52:07.407Z,20.23
2018-11-22T01:52:55.779Z,19.82
2018-11-22T01:53:43.682Z,19.27
2018-11-22T01:54:31.955Z,21.25
2018-11-22T01:55:21.253Z,19.98
2018-11-22T01:56:09.366Z,19.85
2018-11-22T01:56:57.514Z,18.73
2018-11-22T01:57:46.251Z,21.10
2018-11-22T01:58:34.308Z,19.80
2018-11-22T01:59:22.574Z,20.72
2018-11-22T02:00:12.789Z,18.55
2018-11-22T02:01:00.635Z,19.60
2018-11-22T02:01:48.708Z,18.60
2018-11-22T02:02:36.959Z,18.50
2018-11-22T02:03:24.767Z,19.67
2018-11-22T02:04:12.410Z,21.12
2018-11-22T02:04:59.997Z,19.35
2018-11-22T02:05:48.072Z,21.85
2018-11-22T02:06:35.603Z,19.35
2018-11-22T02:07:23.645Z,18.82
2018-11-22T02:08:11.311Z,19.57
2018-11-22T02:08:58.795Z,19.25
2018-11-22T02:09:46.576Z,19.65
2018-11-22T02:10:34.078Z,20.82
2018-11-22T02:11:21.533Z,20.60
2018-11-22T02:12:09.130Z,18.40
2018-11-22T02:12:57.195Z,23.20
2018-11-22T02:13:45.087Z,19.32
2018-11-22T02:14:32.524Z,21.40
2018-11-22T02:15:21.679Z,20.95
2018-11-22T02:16:09.467Z,19.95
2018-11-22T02:16:57.301Z,20.77
2018-11-22T02:17:45.009Z,21.40
2018-11-22T02:18:33.029Z,19.12
2018-11-22T02:19:21.187Z,20.40
2018-11-22T02:20:14.410Z,19.10
2018-11-22T02:21:02.413Z,20.10
2018-11-22T02:21:49.875Z,18.65
2018-11-22T02:22:38.008Z,19.70
2018-11-22T02:23:25.689Z,19.90
2018-11-22T02:24:14.023Z,20.40
2018-11-22T02:25:01.896Z,19.42
2018-11-22T02:25:49.651Z,19.45
2018-11-22T02:26:37.205Z,20.72
2018-11-22T02:27:25.296Z,20.85
2018-11-22T02:28:12.791Z,21.25
2018-11-22T02:29:00.480Z,20.97
2018-11-22T02:29:48.045Z,21.57
2018-11-22T02:30:36.246Z,19.50
2018-11-22T02:31:24.463Z,20.52
2018-11-22T02:32:12.240Z,19.57
2018-11-22T02:33:00.253Z,20.15
2018-11-22T02:33:47.783Z,21.35
2018-11-22T02:34:35.620Z,20.08
2018-11-22T02:35:24.090Z,22.48
2018-11-22T02:36:12.997Z,20.65
2018-11-22T02:37:01.104Z,22.87
2018-11-22T02:37:48.842Z,21.23
2018-11-22T02:38:36.574Z,21.60
2018-11-22T02:39:24.220Z,21.33
2018-11-22T02:40:13.761Z,21.55
2018-11-22T02:41:01.786Z,20.25
2018-11-22T02:41:49.951Z,20.60
2018-11-22T02:42:38.078Z,20.72
2018-11-22T02:43:25.534Z,23.22
2018-11-22T02:44:13.416Z,22.82
2018-11-22T02:45:01.478Z,25.00
2018-11-22T02:45:49.152Z,26.65
2018-11-22T02:46:36.821Z,21.50
2018-11-22T02:48:24.159Z,23.13
2018-11-22T02:49:12.126Z,25.32
2018-11-22T02:49:59.578Z,24.45
2018-11-22T02:50:47.539Z,24.43
2018-11-22T02:51:35.680Z,26.20
2018-11-22T02:52:23.624Z,23.30
2018-11-22T02:53:11.550Z,23.50
2018-11-22T02:53:59.220Z,23.00
2018-11-22T02:54:46.882Z,23.80
2018-11-22T02:55:34.723Z,24.23
2018-11-22T02:56:22.602Z,23.87
2018-11-22T02:57:10.210Z,25.62
2018-11-22T02:57:58.327Z,25.50
2018-11-22T02:58:46.319Z,24.18
2018-11-22T02:59:34.552Z,25.25
2018-11-22T03:00:40.254Z,24.65
2018-11-22T03:01:29.625Z,27.62
2018-11-22T03:02:17.628Z,25.30
2018-11-22T03:03:06.379Z,24.27
2018-11-22T03:03:54.473Z,23.95
2018-11-22T03:04:42.535Z,27.17
2018-11-22T03:05:30.344Z,24.43
2018-11-22T03:06:17.961Z,26.55
2018-11-22T03:07:05.679Z,29.37
2018-11-22T03:07:53.805Z,27.00
2018-11-22T03:08:41.281Z,26.97
2018-11-22T03:09:28.817Z,28.38
2018-11-22T03:10:16.529Z,30.00
2018-11-22T03:11:04.719Z,26.23
2018-11-22T03:11:52.360Z,28.75
2018-11-22T03:12:39.799Z,28.55
2018-11-22T03:13:27.411Z,29.30
2018-11-22T03:14:15.632Z,26.50
2018-11-22T03:15:03.830Z,26.27
2018-11-22T03:15:51.955Z,29.12
2018-11-22T03:16:39.894Z,30.68
2018-11-22T03:17:27.787Z,29.50
2018-11-22T03:18:15.238Z,28.60
2018-11-22T03:19:03.036Z,28.83
2018-11-22T03:19:50.667Z,27.90
2018-11-22T03:20:38.726Z,27.87
2018-11-22T03:21:26.541Z,29.60
2018-11-22T03:22:14.243Z,27.90
2018-11-22T03:23:02.351Z,27.52
2018-11-22T03:23:49.886Z,29.55
2018-11-22T03:24:37.850Z,25.85
2018-11-22T03:25:25.955Z,30.20
2018-11-22T03:26:13.633Z,28.30
2018-11-22T03:27:01.388Z,30.30
2018-11-22T03:27:50.363Z,27.42
2018-11-22T03:28:38.738Z,27.60
2018-11-22T03:29:26.537Z,30.48
2018-11-22T03:30:15.624Z,28.20
2018-11-22T03:31:03.367Z,31.40
2018-11-22T03:31:51.372Z,31.07
2018-11-22T03:32:38.996Z,31.45
2018-11-22T03:33:26.935Z,31.52
2018-11-22T03:34:14.963Z,28.98
2018-11-22T03:35:04.117Z,32.70
2018-11-22T03:35:51.739Z,29.40
2018-11-22T03:36:39.945Z,30.82
2018-11-22T03:37:28.195Z,31.82
2018-11-22T03:38:15.783Z,29.20
2018-11-22T03:39:04.741Z,30.60
2018-11-22T03:39:52.846Z,29.95
2018-11-22T03:40:40.326Z,31.55
2018-11-22T03:41:27.887Z,29.12
2018-11-22T03:42:15.529Z,33.50
2018-11-22T03:43:03.482Z,30.25
2018-11-22T03:43:51.335Z,34.10
2018-11-22T03:44:38.915Z,32.67
2018-11-22T03:45:27.145Z,30.40
2018-11-22T03:46:15.170Z,28.42
2018-11-22T03:47:03.434Z,30.32
2018-11-22T03:47:51.095Z,29.10
2018-11-22T03:48:39.342Z,30.05
2018-11-22T03:49:27.083Z,28.55
2018-11-22T03:50:22.803Z,32.63
2018-11-22T03:51:10.625Z,28.52
2018-11-22T03:52:01.448Z,33.38
2018-11-22T03:52:51.104Z,30.30
2018-11-22T03:53:39.333Z,33.02
2018-11-22T03:54:26.977Z,28.73
2018-11-22T03:55:15.920Z,31.00
2018-11-22T03:56:03.674Z,33.23
2018-11-22T03:56:51.543Z,32.90
2018-11-22T03:57:39.614Z,30.25
2018-11-22T03:58:27.540Z,32.93
2018-11-22T03:59:15.015Z,30.30
2018-11-22T04:00:02.523Z,28.85
2018-11-22T04:00:50.031Z,30.12
2018-11-22T04:01:37.778Z,32.30
2018-11-22T04:02:25.400Z,32.42
2018-11-22T04:03:13.239Z,31.62
2018-11-22T04:04:01.016Z,33.08
2018-11-22T04:04:49.942Z,30.25
2018-11-22T04:05:37.917Z,32.05
2018-11-22T04:06:25.970Z,32.53
2018-11-22T04:07:13.514Z,29.80
2018-11-22T04:08:01.169Z,32.28
2018-11-22T04:08:48.963Z,34.23
2018-11-22T04:09:36.959Z,32.65
2018-11-22T04:10:26.356Z,31.87
2018-11-22T04:11:14.140Z,30.82
2018-11-22T04:12:02.218Z,32.45
2018-11-22T04:12:50.047Z,35.23
2018-11-22T04:13:37.755Z,32.10
2018-11-22T04:14:25.685Z,33.58
2018-11-22T04:15:13.947Z,31.00
2018-11-22T04:16:02.075Z,32.85
2018-11-22T04:16:49.658Z,30.27
2018-11-22T04:17:37.384Z,30.72
2018-11-22T04:18:25.413Z,35.60
2018-11-22T04:19:13.103Z,32.75
2018-11-22T04:20:01.119Z,33.42
2018-11-22T04:20:48.697Z,32.60
2018-11-22T04:21:39.638Z,33.73
2018-11-22T04:22:27.218Z,30.05
2018-11-22T04:23:15.368Z,32.48
2018-11-22T04:24:03.054Z,32.73
2018-11-22T04:24:50.903Z,32.10
2018-11-22T04:25:39.030Z,34.78
2018-11-22T04:26:26.713Z,32.42
2018-11-22T04:27:14.227Z,33.75
2018-11-22T04:28:01.866Z,31.40
2018-11-22T04:28:49.839Z,32.55
2018-11-22T04:29:37.881Z,34.00
2018-11-22T04:30:29.651Z,31.60
2018-11-22T04:31:17.429Z,32.30
2018-11-22T04:32:05.071Z,29.30
2018-11-22T04:32:53.309Z,33.30
2018-11-22T04:33:41.255Z,34.15
2018-11-22T04:34:28.927Z,34.67
2018-11-22T04:35:17.485Z,29.72
2018-11-22T04:36:05.584Z,33.13
2018-11-22T04:36:53.919Z,31.50
2018-11-22T04:37:42.528Z,31.60
2018-11-22T04:38:30.305Z,32.00
2018-11-22T04:39:18.410Z,31.52
2018-11-22T04:40:08.657Z,32.05
2018-11-22T04:40:56.406Z,32.98
2018-11-22T04:41:44.284Z,34.83
2018-11-22T04:42:31.930Z,33.25
2018-11-22T04:43:20.030Z,33.73
2018-11-22T04:44:07.764Z,31.57
2018-11-22T04:44:55.561Z,33.75
2018-11-22T04:45:43.173Z,34.43
2018-11-22T04:46:31.328Z,31.23
2018-11-22T04:47:19.111Z,34.92
2018-11-22T04:48:06.952Z,33.63
2018-11-22T04:48:54.800Z,33.08
2018-11-22T04:49:42.449Z,34.33
2018-11-22T04:50:34.796Z,33.90
2018-11-22T04:51:21.689Z,34.90
2018-11-22T04:52:10.035Z,34.45
2018-11-22T04:52:58.122Z,35.17
2018-11-22T04:53:46.431Z,38.15
2018-11-22T04:54:34.773Z,30.92
2018-11-22T04:55:22.953Z,37.05
2018-11-22T04:56:10.944Z,33.70
2018-11-22T04:56:59.099Z,32.15
2018-11-22T04:57:46.594Z,31.37
2018-11-22T04:58:34.239Z,35.95
2018-11-22T04:59:22.775Z,36.25
2018-11-22T05:00:13.379Z,33.38
2018-11-22T05:01:01.505Z,33.53
2018-11-22T05:01:49.461Z,32.23
2018-11-22T05:02:37.191Z,32.75
2018-11-22T05:03:24.800Z,34.43
2018-11-22T05:04:12.400Z,32.42
2018-11-22T05:05:00.439Z,32.67
2018-11-22T05:05:48.095Z,30.77
2018-11-22T05:06:36.627Z,32.25
2018-11-22T05:07:24.505Z,32.65
2018-11-22T05:08:12.015Z,33.53
2018-11-22T05:08:59.547Z,31.10
2018-11-22T05:09:47.381Z,31.68
2018-11-22T05:10:35.308Z,31.27
2018-11-22T05:11:22.878Z,34.83
2018-11-22T05:12:10.317Z,36.35
2018-11-22T05:12:58.054Z,34.63
2018-11-22T05:13:45.735Z,30.95
2018-11-22T05:14:33.681Z,32.63
2018-11-22T05:15:23.533Z,32.30
2018-11-22T05:16:11.637Z,28.80
2018-11-22T05:16:59.420Z,33.35
2018-11-22T05:17:47.391Z,33.90
2018-11-22T05:18:34.961Z,35.63
2018-11-22T05:19:22.553Z,32.80
2018-11-22T05:20:11.822Z,31.65
2018-11-22T05:20:59.674Z,31.48
2018-11-22T05:21:47.804Z,32.67
2018-11-22T05:22:35.867Z,32.25
2018-11-22T05:23:24.044Z,35.52
2018-11-22T05:24:12.491Z,38.55
2018-11-22T05:25:01.042Z,33.78
2018-11-22T05:25:49.078Z,38.08
2018-11-22T05:26:37.146Z,41.77
2018-11-22T05:27:25.141Z,37.45
2018-11-22T05:28:13.004Z,32.73
2018-11-22T05:29:00.506Z,35.05
2018-11-22T05:29:48.072Z,33.33
2018-11-22T05:30:36.123Z,35.15
2018-11-22T05:31:24.387Z,31.40
2018-11-22T05:32:12.305Z,33.70
2018-11-22T05:33:00.632Z,30.88
2018-11-22T05:33:48.732Z,32.00
2018-11-22T05:34:37.013Z,35.25
2018-11-22T05:35:25.327Z,32.58
2018-11-22T05:36:12.988Z,36.88
2018-11-22T05:37:00.642Z,32.25
2018-11-22T05:37:48.279Z,30.08
2018-11-22T05:38:35.959Z,32.83
2018-11-22T05:39:24.131Z,32.38
2018-11-22T05:40:14.227Z,31.62
2018-11-22T05:41:02.223Z,32.03
2018-11-22T05:41:50.285Z,32.88
2018-11-22T05:42:38.315Z,31.90
2018-11-22T05:43:25.903Z,32.88
2018-11-22T05:44:14.142Z,31.02
2018-11-22T05:45:02.336Z,31.87
2018-11-22T05:45:50.716Z,31.37
2018-11-22T05:46:39.053Z,29.48
2018-11-22T05:47:26.823Z,33.92
2018-11-22T05:48:15.194Z,31.10
2018-11-22T05:49:03.244Z,32.10
2018-11-22T05:49:51.340Z,31.95
2018-11-22T05:50:39.653Z,32.25
2018-11-22T05:51:27.618Z,32.53
2018-11-22T05:52:15.681Z,32.48
2018-11-22T05:53:04.239Z,32.23
2018-11-22T05:53:52.136Z,33.00
2018-11-22T05:54:40.357Z,30.30
2018-11-22T05:55:28.199Z,31.57
2018-11-22T05:56:16.482Z,33.23
2018-11-22T05:57:04.651Z,30.05
2018-11-22T05:57:52.263Z,31.60
2018-11-22T05:58:39.862Z,31.12
2018-11-22T05:59:27.934Z,32.05
2018-11-22T06:00:21.632Z,34.00
2018-11-22T06:01:09.879Z,31.48
2018-11-22T06:01:58.084Z,33.28
2018-11-22T06:02:45.900Z,32.78
2018-11-22T06:03:33.926Z,32.65
2018-11-22T06:04:21.727Z,30.60
2018-11-22T06:05:10.709Z,32.25
2018-11-22T06:05:58.820Z,31.85
2018-11-22T06:06:47.482Z,30.17
2018-11-22T06:07:35.523Z,31.97
2018-11-22T06:08:23.378Z,31.33
2018-11-22T06:09:11.661Z,30.65
2018-11-22T06:09:59.499Z,33.25
2018-11-22T06:10:47.916Z,31.57
2018-11-22T06:11:35.827Z,32.55
2018-11-22T06:12:23.653Z,34.88
2018-11-22T06:13:11.856Z,29.72
2018-11-22T06:14:06.099Z,32.67
2018-11-22T06:14:54.033Z,33.80
2018-11-22T06:15:42.011Z,33.02
2018-11-22T06:16:30.292Z,33.98
2018-11-22T06:17:18.800Z,33.95
2018-11-22T06:18:06.972Z,33.65
2018-11-22T06:18:54.695Z,31.73
2018-11-22T06:19:42.842Z,33.42
2018-11-22T06:20:31.932Z,32.70
2018-11-22T06:21:20.013Z,33.18
2018-11-22T06:22:07.924Z,31.57
2018-11-22T06:22:56.330Z,35.55
2018-11-22T06:23:44.455Z,35.28
2018-11-22T06:24:32.176Z,32.90
2018-11-22T06:25:20.384Z,33.25
2018-11-22T06:26:07.846Z,36.23
2018-11-22T06:26:55.368Z,37.03
2018-11-22T06:27:43.537Z,31.93
2018-11-22T06:28:32.311Z,35.03
2018-11-22T06:29:20.183Z,32.00
2018-11-22T06:30:15.763Z,34.08
2018-11-22T06:31:06.337Z,36.63
2018-11-22T06:31:52.151Z,32.60
2018-11-22T06:32:39.903Z,34.20
2018-11-22T06:33:28.021Z,35.13
2018-11-22T06:34:16.304Z,36.23
2018-11-22T06:35:04.256Z,31.57
2018-11-22T06:35:52.156Z,35.68
2018-11-22T06:36:39.751Z,36.38
2018-11-22T06:37:27.298Z,33.02
2018-11-22T06:38:14.939Z,31.02
2018-11-22T06:39:03.406Z,32.30
2018-11-22T06:39:50.889Z,35.43
2018-11-22T06:40:38.369Z,30.95
2018-11-22T06:41:25.882Z,31.05
2018-11-22T06:42:13.392Z,31.52
2018-11-22T06:43:01.620Z,31.17
2018-11-22T06:43:49.583Z,31.80
2018-11-22T06:44:37.584Z,34.15
2018-11-22T06:45:26.668Z,33.20
2018-11-22T06:46:14.529Z,33.15
2018-11-22T06:47:02.804Z,34.88
2018-11-22T06:47:50.414Z,38.05
2018-11-22T06:48:38.490Z,33.08
2018-11-22T06:49:26.109Z,34.60
2018-11-22T06:50:15.027Z,33.30
2018-11-22T06:51:03.169Z,31.95
2018-11-22T06:51:51.253Z,32.35
2018-11-22T06:52:38.980Z,33.78
2018-11-22T06:53:27.099Z,40.00
2018-11-22T06:54:15.135Z,33.75
2018-11-22T06:55:03.825Z,33.95
2018-11-22T06:55:51.697Z,34.25
2018-11-22T06:56:39.912Z,30.62
2018-11-22T06:57:27.630Z,37.08
2018-11-22T06:58:18.829Z,32.03
2018-11-22T06:59:07.027Z,33.58
2018-11-22T06:59:54.535Z,32.88
2018-11-22T07:00:41.987Z,34.90
2018-11-22T07:01:30.360Z,34.78
2018-11-22T07:02:18.508Z,37.60
2018-11-22T07:03:08.263Z,32.45
2018-11-22T07:03:55.975Z,32.75
2018-11-22T07:04:44.203Z,34.58
2018-11-22T07:05:32.579Z,35.33
2018-11-22T07:06:20.683Z,33.23
2018-11-22T07:07:08.672Z,34.48
2018-11-22T07:07:56.495Z,35.33
2018-11-22T07:08:44.584Z,38.53
2018-11-22T07:09:32.604Z,36.45
2018-11-22T07:10:20.596Z,35.28
2018-11-22T07:11:08.764Z,31.12
2018-11-22T07:11:56.369Z,36.17
2018-11-22T07:12:44.147Z,34.48
2018-11-22T07:13:32.026Z,31.93
2018-11-22T07:14:20.015Z,33.70
2018-11-22T07:15:08.447Z,32.38
2018-11-22T07:15:56.286Z,34.38
2018-11-22T07:16:43.859Z,35.05
2018-11-22T07:17:32.130Z,34.25
2018-11-22T07:18:20.269Z,35.10
2018-11-22T07:19:08.243Z,32.73
2018-11-22T07:19:55.969Z,34.63
2018-11-22T07:20:43.501Z,35.95
2018-11-22T07:21:31.981Z,34.55
2018-11-22T07:22:20.242Z,35.70
2018-11-22T07:23:08.270Z,37.23
2018-11-22T07:23:56.287Z,42.80
2018-11-22T07:24:43.847Z,40.63
2018-11-22T07:25:32.343Z,37.75
2018-11-22T07:26:20.674Z,33.90
2018-11-22T07:27:08.589Z,37.45
2018-11-22T07:27:56.536Z,39.73
2018-11-22T07:28:44.263Z,38.98
2018-11-22T07:29:31.962Z,39.67
2018-11-22T07:30:21.842Z,37.55
2018-11-22T07:31:09.543Z,35.52
2018-11-22T07:31:57.164Z,38.55
2018-11-22T07:32:45.473Z,35.40
2018-11-22T07:33:38.176Z,35.03
2018-11-22T07:34:21.310Z,38.20
2018-11-22T07:35:10.906Z,35.88
2018-11-22T07:35:58.875Z,35.55
2018-11-22T07:36:46.659Z,37.70
2018-11-22T07:37:34.661Z,37.83
2018-11-22T07:38:22.297Z,36.93
2018-11-22T07:39:10.556Z,35.15
2018-11-22T07:39:58.654Z,34.80
2018-11-22T07:40:46.352Z,35.88
2018-11-22T07:41:34.521Z,34.23
2018-11-22T07:42:22.425Z,36.05
2018-11-22T07:43:09.975Z,39.60
2018-11-22T07:43:57.583Z,36.35
2018-11-22T07:44:45.295Z,34.60
2018-11-22T07:45:35.075Z,35.00
2018-11-22T07:46:23.018Z,36.88
2018-11-22T07:47:10.759Z,34.70
2018-11-22T07:47:59.594Z,39.38
2018-11-22T07:48:47.757Z,36.03
2018-11-22T07:49:35.686Z,34.13
2018-11-22T07:50:24.023Z,38.00
2018-11-22T07:51:11.771Z,34.53
2018-11-22T07:52:00.079Z,36.50
2018-11-22T07:52:48.340Z,36.15
2018-11-22T07:53:36.604Z,35.80
2018-11-22T07:54:24.715Z,35.50
2018-11-22T07:55:14.434Z,34.65
2018-11-22T07:56:03.150Z,34.98
2018-11-22T07:56:53.904Z,33.65
2018-11-22T07:57:41.553Z,33.60
2018-11-22T07:58:29.585Z,34.60
2018-11-22T07:59:17.490Z,34.90
2018-11-22T08:00:08.366Z,38.20
2018-11-22T08:01:44.444Z,34.70
2018-11-22T08:02:32.894Z,36.70
2018-11-22T08:03:23.935Z,33.48
2018-11-22T08:04:11.423Z,35.20
2018-11-22T08:05:00.247Z,33.88
2018-11-22T08:05:51.145Z,33.55
2018-11-22T08:06:38.874Z,35.20
2018-11-22T08:07:26.514Z,34.80
2018-11-22T08:08:14.194Z,33.90
2018-11-22T08:09:04.836Z,35.03
2018-11-22T08:09:52.665Z,33.88
2018-11-22T08:10:40.177Z,36.00
2018-11-22T08:11:27.919Z,33.80
2018-11-22T08:12:16.033Z,33.05
2018-11-22T08:13:04.267Z,34.10
2018-11-22T08:13:51.998Z,35.50
2018-11-22T08:14:40.012Z,35.55
2018-11-22T08:15:29.585Z,32.63
2018-11-22T08:16:17.219Z,34.58
2018-11-22T08:17:05.500Z,33.90
2018-11-22T08:17:53.460Z,34.30
2018-11-22T08:18:41.651Z,35.00
2018-11-22T08:19:29.988Z,36.68
2018-11-22T08:20:19.695Z,32.88
2018-11-22T08:21:08.215Z,36.88
2018-11-22T08:21:56.294Z,30.82
2018-11-22T08:22:44.303Z,33.70
2018-11-22T08:23:32.218Z,34.30
2018-11-22T08:24:20.219Z,35.60
2018-11-22T08:25:10.422Z,34.95
2018-11-22T08:25:58.463Z,32.73
2018-11-22T08:26:47.185Z,35.08
2018-11-22T08:27:35.096Z,34.55
2018-11-22T08:28:22.994Z,36.45
2018-11-22T08:29:11.300Z,32.13
2018-11-22T08:29:59.171Z,31.33
2018-11-22T08:30:47.467Z,37.00
2018-11-22T08:31:35.636Z,35.30
2018-11-22T08:32:23.494Z,32.30
2018-11-22T08:33:11.053Z,32.48
2018-11-22T08:33:58.727Z,32.05
2018-11-22T08:34:46.648Z,35.35
2018-11-22T08:35:34.728Z,34.27
2018-11-22T08:36:22.439Z,36.03
2018-11-22T08:37:10.263Z,33.67
2018-11-22T08:37:58.087Z,34.10
2018-11-22T08:38:45.662Z,34.90
2018-11-22T08:39:33.780Z,34.75
2018-11-22T08:40:23.488Z,33.23
2018-11-22T08:41:11.553Z,40.33
2018-11-22T08:41:59.332Z,37.33
2018-11-22T08:42:47.372Z,33.92
2018-11-22T08:43:35.060Z,33.92
2018-11-22T08:44:22.699Z,35.55
2018-11-22T08:45:11.379Z,32.42
2018-11-22T08:45:59.549Z,33.90
2018-11-22T08:46:47.746Z,38.20
2018-11-22T08:47:35.855Z,33.67
2018-11-22T08:48:23.907Z,33.15
2018-11-22T08:49:11.880Z,35.68
2018-11-22T08:49:59.502Z,36.17
2018-11-22T08:50:48.590Z,36.40
2018-11-22T08:51:36.773Z,34.70
2018-11-22T08:52:24.388Z,34.08
2018-11-22T08:53:11.898Z,35.75
2018-11-22T08:53:59.336Z,35.50
2018-11-22T08:54:47.080Z,34.78
2018-11-22T08:55:34.995Z,33.92
2018-11-22T08:56:22.855Z,33.33
2018-11-22T08:57:10.572Z,37.00
2018-11-22T08:57:58.251Z,34.43
2018-11-22T08:58:45.929Z,37.10
2018-11-22T08:59:33.641Z,33.80
2018-11-22T09:00:25.532Z,32.63
2018-11-22T09:01:13.430Z,31.85
2018-11-22T09:02:01.178Z,33.80
2018-11-22T09:02:49.487Z,34.13
2018-11-22T09:03:37.362Z,37.03
2018-11-22T09:05:14.064Z,32.38
2018-11-22T09:06:02.031Z,33.65
2018-11-22T09:06:49.756Z,32.05
2018-11-22T09:07:37.295Z,34.75
2018-11-22T09:08:27.905Z,33.67
2018-11-22T09:09:15.863Z,35.65
2018-11-22T09:10:03.788Z,32.08
2018-11-22T09:10:51.762Z,31.97
2018-11-22T09:11:39.715Z,31.65
2018-11-22T09:12:27.765Z,31.87
2018-11-22T09:13:15.434Z,34.70
2018-11-22T09:14:03.211Z,33.70
2018-11-22T09:14:51.175Z,33.92
2018-11-22T09:15:38.900Z,33.30
2018-11-22T09:16:26.868Z,32.17
2018-11-22T09:17:14.409Z,36.00
2018-11-22T09:18:02.115Z,33.40
2018-11-22T09:18:49.944Z,33.58
2018-11-22T09:19:37.854Z,34.20
2018-11-22T09:20:27.485Z,33.00
2018-11-22T09:21:15.270Z,35.63
2018-11-22T09:22:02.851Z,33.42
2018-11-22T09:22:50.641Z,33.80
2018-11-22T09:23:38.565Z,31.07
2018-11-22T09:24:26.700Z,30.92
2018-11-22T09:25:15.263Z,31.80
2018-11-22T09:26:02.978Z,32.75
2018-11-22T09:26:51.043Z,33.18
2018-11-22T09:27:39.061Z,32.70
2018-11-22T09:28:27.399Z,32.23
2018-11-22T09:29:15.392Z,32.03
2018-11-22T09:30:03.035Z,32.00
2018-11-22T09:30:50.638Z,32.38
2018-11-22T09:31:38.259Z,32.40
2018-11-22T09:32:26.275Z,29.65
2018-11-22T09:33:14.342Z,30.05
2018-11-22T09:34:01.910Z,34.88
2018-11-22T09:34:49.291Z,29.92
2018-11-22T09:35:37.722Z,30.92
2018-11-22T09:36:25.558Z,31.05
2018-11-22T09:37:13.118Z,35.50
2018-11-22T09:38:00.714Z,31.10
2018-11-22T09:38:48.365Z,33.45
2018-11-22T09:39:36.430Z,34.23
2018-11-22T09:40:25.402Z,33.20
2018-11-22T09:41:13.372Z,35.63
2018-11-22T09:42:01.607Z,30.52
2018-11-22T09:42:49.468Z,32.13
2018-11-22T09:43:37.128Z,31.68
2018-11-22T09:44:24.608Z,33.70
2018-11-22T09:45:17.813Z,31.82
2018-11-22T09:46:05.837Z,31.87
2018-11-22T09:46:53.580Z,31.55
2018-11-22T09:47:41.073Z,30.50
2018-11-22T09:48:28.886Z,30.95
2018-11-22T09:49:16.590Z,29.75
2018-11-22T09:50:04.671Z,33.73
2018-11-22T09:50:52.692Z,29.57
2018-11-22T09:51:40.340Z,31.05
2018-11-22T09:52:27.875Z,32.48
2018-11-22T09:53:15.386Z,29.48
2018-11-22T09:54:03.108Z,33.28
2018-11-22T09:54:50.721Z,31.82
2018-11-22T09:55:38.666Z,34.78
2018-11-22T09:56:26.054Z,31.42
2018-11-22T09:57:13.759Z,31.30
2018-11-22T09:58:01.847Z,31.00
2018-11-22T09:59:37.634Z,33.45
2018-11-22T10:00:25.709Z,32.28
2018-11-22T10:01:13.644Z,32.85
2018-11-22T10:02:01.221Z,30.82
2018-11-22T10:02:48.881Z,29.63
2018-11-22T10:03:37.030Z,30.60
2018-11-22T10:04:24.889Z,32.55
2018-11-22T10:05:19.772Z,30.10
2018-11-22T10:06:07.908Z,28.92
2018-11-22T10:06:55.837Z,32.38
2018-11-22T10:07:43.568Z,30.77
2018-11-22T10:08:31.664Z,29.95
2018-11-22T10:09:19.691Z,33.05
2018-11-22T10:10:10.513Z,32.53
2018-11-22T10:10:58.236Z,34.55
2018-11-22T10:11:46.249Z,29.98
2018-11-22T10:12:34.085Z,30.77
2018-11-22T10:13:22.053Z,32.13
2018-11-22T10:14:10.042Z,32.23
2018-11-22T10:14:58.143Z,30.35
2018-11-22T10:15:46.249Z,30.17
2018-11-22T10:16:33.700Z,30.32
2018-11-22T10:17:21.425Z,31.40
2018-11-22T10:18:08.963Z,29.57
2018-11-22T10:18:57.020Z,29.30
2018-11-22T10:19:44.929Z,30.15
2018-11-22T10:20:32.772Z,31.95
2018-11-22T10:21:20.609Z,28.45
2018-11-22T10:22:08.465Z,28.00
2018-11-22T10:22:56.797Z,30.30
2018-11-22T10:23:44.910Z,32.85